Ambler, Alaska
Current Conditions -  °F | °C
As of 3:16 AM on Friday 21 Nov 2014 (Local Time) from PAFM Reporting Station
Clear Clear  
Wind Chill: -11°   Ceiling: Unl
Heat Index: -7°   Visibility: 10mi
Dew Point: -11°   Wind: 6mph
Humidity: 74%   Direction: 20°NNE
Pressure: 29.47"   Gusts: NA
Location:  67.09°N, 157.85°W
Report Text: PAFM 211216Z AUTO 02005KT 10SM CLR M07/M11 A2947 RMK AO1
Loading
Personal Weather Stations






























Interactive Weather Map New forecast layout! Learn more

10-Day Weather Forecast

Advertisements
Track Severe Weather on mobile